Guarani, Argentina
Current Conditions -  °F | °C
As of 4:00 PM on Friday 31 Oct 2014 (Local Time) from SGEN Reporting Station
Thunderstorm Thunderstorm  
Wind Chill: 72°   Ceiling: 2000
Heat Index: 72°   Visibility: 5mi
Dew Point: 66°   Wind: 5mph
Humidity: 83%   Direction: 60°ENE
Pressure: 29.8"   Gusts: NA
Location:  27.52°S, 55.17°W
Report Text: SGEN 311900Z 06004KT 8000 -TSRA OVC020 FEW040CB 22/19 Q1009
Loading
Personal Weather Stations






























Interactive Weather Map New forecast layout! Learn more

10-Day Weather Forecast

Advertisements
Track Severe Weather on mobile